Terminal Aerodrome Forecast
Issued by NWS

Current Version | Previous Version | Text Only | Print | Product List | Glossary On
Versions: 1 2 3 4 5 6 7 8 9 10 11 12 13
000
FTUS44 KEPZ 182300
TAFLRU
TAF
KLRU 182327Z 1900/1924 27015G23KT P6SM SCT120
     FM190300 28012KT P6SM SCT120
     FM191700 27010G18KT P6SM FEW140=

USA.gov is the U.S. government's official web portal to all federal, state and local government web resources and services.